sensor_id;sensor_type;location;lat;lon;timestamp;pressure;altitude;pressure_sealevel;temperature;humidity
79686;BME280;69153;47.918;11.428;2023-09-19T00:01:14;94904.44;;;17.89;65.24
79686;BME280;69153;47.918;11.428;2023-09-19T00:03:40;94921.53;;;17.91;65.20
79686;BME280;69153;47.918;11.428;2023-09-19T00:06:08;94910.47;;;17.83;65.63
79686;BME280;69153;47.918;11.428;2023-09-19T00:08:36;94918.78;;;17.85;65.51
79686;BME280;69153;47.918;11.428;2023-09-19T00:11:01;94906.25;;;17.77;66.01
79686;BME280;69153;47.918;11.428;2023-09-19T00:13:32;94897.06;;;17.63;66.36
79686;BME280;69153;47.918;11.428;2023-09-19T00:16:00;94909.69;;;17.77;65.90
79686;BME280;69153;47.918;11.428;2023-09-19T00:18:25;94911.94;;;17.84;65.77
79686;BME280;69153;47.918;11.428;2023-09-19T00:20:58;94910.66;;;17.80;65.63
79686;BME280;69153;47.918;11.428;2023-09-19T00:23:23;94906.63;;;17.70;65.84
79686;BME280;69153;47.918;11.428;2023-09-19T00:25:50;94907.84;;;17.69;66.02
79686;BME280;69153;47.918;11.428;2023-09-19T00:28:16;94915.41;;;17.70;65.50
79686;BME280;69153;47.918;11.428;2023-09-19T00:30:44;94918.22;;;17.81;65.49
79686;BME280;69153;47.918;11.428;2023-09-19T00:33:10;94913.44;;;17.65;65.98
79686;BME280;69153;47.918;11.428;2023-09-19T00:35:50;94922.72;;;17.70;65.66
79686;BME280;69153;47.918;11.428;2023-09-19T00:38:15;94921.78;;;17.73;65.45
79686;BME280;69153;47.918;11.428;2023-09-19T00:40:46;94924.59;;;17.64;65.90
79686;BME280;69153;47.918;11.428;2023-09-19T00:43:11;94920.03;;;17.70;65.74
79686;BME280;69153;47.918;11.428;2023-09-19T00:45:37;94917.97;;;17.79;65.34
79686;BME280;69153;47.918;11.428;2023-09-19T00:48:08;94924.13;;;17.85;65.29
79686;BME280;69153;47.918;11.428;2023-09-19T00:50:35;94918.38;;;17.72;65.26
79686;BME280;69153;47.918;11.428;2023-09-19T00:53:02;94919.56;;;17.51;66.16
79686;BME280;69153;47.918;11.428;2023-09-19T00:55:39;94918.44;;;17.43;66.53
79686;BME280;69153;47.918;11.428;2023-09-19T00:58:05;94923.75;;;17.58;66.11
79686;BME280;69153;47.918;11.428;2023-09-19T01:00:33;94921.19;;;17.63;66.03
79686;BME280;69153;47.918;11.428;2023-09-19T01:03:02;94930.41;;;17.62;65.63
79686;BME280;69153;47.918;11.428;2023-09-19T01:05:28;94928.38;;;17.57;66.04
79686;BME280;69153;47.918;11.428;2023-09-19T01:07:54;94927.06;;;17.67;65.73
79686;BME280;69153;47.918;11.428;2023-09-19T01:10:21;94929.81;;;17.73;65.49
79686;BME280;69153;47.918;11.428;2023-09-19T01:13:21;94933.72;;;17.72;65.43
79686;BME280;69153;47.918;11.428;2023-09-19T01:18:52;94950.94;;;17.85;65.05
79686;BME280;69153;47.918;11.428;2023-09-19T01:21:43;94958.97;;;17.85;65.05
79686;BME280;69153;47.918;11.428;2023-09-19T01:30:27;94974.00;;;17.77;64.83
79686;BME280;69153;47.918;11.428;2023-09-19T01:32:57;94959.72;;;17.86;64.70
79686;BME280;69153;47.918;11.428;2023-09-19T01:35:24;94969.19;;;17.32;64.90
79686;BME280;69153;47.918;11.428;2023-09-19T01:37:50;94965.63;;;17.05;66.41
79686;BME280;69153;47.918;11.428;2023-09-19T01:40:20;94948.41;;;17.27;65.66
79686;BME280;69153;47.918;11.428;2023-09-19T01:48:54;94959.22;;;18.08;62.58
79686;BME280;69153;47.918;11.428;2023-09-19T01:51:36;94957.06;;;18.32;61.86
79686;BME280;69153;47.918;11.428;2023-09-19T01:54:09;94964.34;;;18.32;61.25
79686;BME280;69153;47.918;11.428;2023-09-19T01:56:40;94961.75;;;18.37;61.49
79686;BME280;69153;47.918;11.428;2023-09-19T01:59:13;94955.44;;;18.40;61.43
79686;BME280;69153;47.918;11.428;2023-09-19T02:01:40;94964.91;;;18.36;61.74
79686;BME280;69153;47.918;11.428;2023-09-19T02:04:10;94960.81;;;18.40;61.20
79686;BME280;69153;47.918;11.428;2023-09-19T02:06:39;94961.31;;;18.44;61.49
79686;BME280;69153;47.918;11.428;2023-09-19T02:09:05;94966.38;;;18.37;62.16
79686;BME280;69153;47.918;11.428;2023-09-19T02:11:31;94971.00;;;18.36;62.02
79686;BME280;69153;47.918;11.428;2023-09-19T02:13:56;94967.19;;;18.23;62.55
79686;BME280;69153;47.918;11.428;2023-09-19T02:16:22;94973.56;;;18.25;62.40
79686;BME280;69153;47.918;11.428;2023-09-19T02:18:49;94974.97;;;18.41;61.99
79686;BME280;69153;47.918;11.428;2023-09-19T02:21:15;94976.63;;;18.38;61.59
79686;BME280;69153;47.918;11.428;2023-09-19T02:23:41;94973.88;;;18.33;62.17
79686;BME280;69153;47.918;11.428;2023-09-19T02:26:06;94978.59;;;18.38;61.86
79686;BME280;69153;47.918;11.428;2023-09-19T02:28:33;94974.88;;;18.35;61.86
79686;BME280;69153;47.918;11.428;2023-09-19T02:30:59;94979.47;;;18.29;62.03
79686;BME280;69153;47.918;11.428;2023-09-19T02:33:25;94976.16;;;18.40;61.68
79686;BME280;69153;47.918;11.428;2023-09-19T02:35:55;94974.34;;;18.31;61.98
79686;BME280;69153;47.918;11.428;2023-09-19T02:38:23;94979.03;;;18.36;61.73
79686;BME280;69153;47.918;11.428;2023-09-19T02:40:50;94981.47;;;18.34;62.24
79686;BME280;69153;47.918;11.428;2023-09-19T02:43:16;94990.31;;;18.40;61.08
79686;BME280;69153;47.918;11.428;2023-09-19T02:45:42;94985.41;;;18.39;61.55
79686;BME280;69153;47.918;11.428;2023-09-19T02:48:08;94989.06;;;18.15;61.75
79686;BME280;69153;47.918;11.428;2023-09-19T02:50:34;94988.41;;;18.00;60.79
79686;BME280;69153;47.918;11.428;2023-09-19T02:52:59;94983.00;;;17.80;62.20
79686;BME280;69153;47.918;11.428;2023-09-19T02:55:25;94980.81;;;17.99;61.67
79686;BME280;69153;47.918;11.428;2023-09-19T02:57:52;94980.63;;;18.02;61.05
79686;BME280;69153;47.918;11.428;2023-09-19T03:00:21;94986.13;;;18.13;60.98
79686;BME280;69153;47.918;11.428;2023-09-19T03:02:52;94988.38;;;18.20;60.59
79686;BME280;69153;47.918;11.428;2023-09-19T03:05:19;94984.56;;;18.27;60.12
79686;BME280;69153;47.918;11.428;2023-09-19T03:07:47;94985.50;;;18.24;60.08
79686;BME280;69153;47.918;11.428;2023-09-19T03:10:16;94988.56;;;18.37;60.18
79686;BME280;69153;47.918;11.428;2023-09-19T03:12:42;94984.72;;;18.44;60.00
79686;BME280;69153;47.918;11.428;2023-09-19T03:15:08;94983.53;;;18.65;59.55
79686;BME280;69153;47.918;11.428;2023-09-19T03:17:34;94986.50;;;18.73;58.78
79686;BME280;69153;47.918;11.428;2023-09-19T03:19:59;94973.41;;;18.80;59.08
79686;BME280;69153;47.918;11.428;2023-09-19T03:22:27;94983.53;;;18.65;58.44
79686;BME280;69153;47.918;11.428;2023-09-19T03:24:53;94988.00;;;18.53;58.45
79686;BME280;69153;47.918;11.428;2023-09-19T03:27:18;94990.59;;;18.42;58.72
79686;BME280;69153;47.918;11.428;2023-09-19T03:29:44;94979.16;;;18.47;58.74
79686;BME280;69153;47.918;11.428;2023-09-19T03:32:09;94976.63;;;18.38;59.03
79686;BME280;69153;47.918;11.428;2023-09-19T03:34:36;94980.41;;;18.26;59.23
79686;BME280;69153;47.918;11.428;2023-09-19T03:37:05;94979.59;;;18.20;59.56
79686;BME280;69153;47.918;11.428;2023-09-19T03:39:32;94976.44;;;18.21;59.22
79686;BME280;69153;47.918;11.428;2023-09-19T03:41:57;94975.44;;;18.19;59.03
79686;BME280;69153;47.918;11.428;2023-09-19T03:44:23;94984.03;;;18.23;59.63
79686;BME280;69153;47.918;11.428;2023-09-19T03:46:48;94976.31;;;18.10;58.69
79686;BME280;69153;47.918;11.428;2023-09-19T03:49:14;94970.97;;;17.90;59.32
79686;BME280;69153;47.918;11.428;2023-09-19T03:51:39;94988.88;;;17.78;59.53
79686;BME280;69153;47.918;11.428;2023-09-19T03:54:07;94986.09;;;17.93;58.88
79686;BME280;69153;47.918;11.428;2023-09-19T03:56:33;94986.97;;;18.05;58.71
79686;BME280;69153;47.918;11.428;2023-09-19T03:58:58;94996.84;;;18.13;58.35
79686;BME280;69153;47.918;11.428;2023-09-19T04:01:24;95001.41;;;17.87;58.83
79686;BME280;69153;47.918;11.428;2023-09-19T04:03:51;94991.00;;;17.95;58.90
79686;BME280;69153;47.918;11.428;2023-09-19T04:06:18;94999.00;;;17.89;59.05
79686;BME280;69153;47.918;11.428;2023-09-19T04:08:44;94995.28;;;18.07;58.38
79686;BME280;69153;47.918;11.428;2023-09-19T04:11:10;95004.41;;;18.15;57.97
79686;BME280;69153;47.918;11.428;2023-09-19T04:13:36;95003.53;;;18.24;57.63
79686;BME280;69153;47.918;11.428;2023-09-19T04:16:02;95013.53;;;18.23;57.83
79686;BME280;69153;47.918;11.428;2023-09-19T04:18:29;95005.56;;;18.29;57.32
79686;BME280;69153;47.918;11.428;2023-09-19T04:20:58;95002.25;;;18.19;57.71
79686;BME280;69153;47.918;11.428;2023-09-19T04:23:24;95004.94;;;18.19;58.11
79686;BME280;69153;47.918;11.428;2023-09-19T04:25:49;95010.44;;;18.30;57.35
79686;BME280;69153;47.918;11.428;2023-09-19T04:28:15;95011.03;;;18.19;57.29
79686;BME280;69153;47.918;11.428;2023-09-19T04:30:41;95021.38;;;18.27;57.18
79686;BME280;69153;47.918;11.428;2023-09-19T04:33:07;95016.00;;;18.06;57.84
79686;BME280;69153;47.918;11.428;2023-09-19T04:35:33;95023.72;;;17.99;57.69
79686;BME280;69153;47.918;11.428;2023-09-19T04:38:00;95028.06;;;17.76;58.49
79686;BME280;69153;47.918;11.428;2023-09-19T04:40:26;95036.25;;;17.87;57.84
79686;BME280;69153;47.918;11.428;2023-09-19T04:42:57;95025.66;;;17.78;57.90
79686;BME280;69153;47.918;11.428;2023-09-19T04:45:26;95037.25;;;17.90;57.80
79686;BME280;69153;47.918;11.428;2023-09-19T04:47:53;95045.91;;;17.99;57.63
79686;BME280;69153;47.918;11.428;2023-09-19T04:50:19;95044.75;;;18.06;57.26
79686;BME280;69153;47.918;11.428;2023-09-19T04:52:49;95047.97;;;18.10;56.77
79686;BME280;69153;47.918;11.428;2023-09-19T04:55:17;95050.41;;;18.08;57.01
79686;BME280;69153;47.918;11.428;2023-09-19T04:57:44;95057.03;;;18.12;57.08
79686;BME280;69153;47.918;11.428;2023-09-19T05:00:12;95053.03;;;18.23;56.73
79686;BME280;69153;47.918;11.428;2023-09-19T05:02:40;95062.94;;;18.16;57.05
79686;BME280;69153;47.918;11.428;2023-09-19T05:05:07;95061.16;;;18.28;56.90
79686;BME280;69153;47.918;11.428;2023-09-19T05:07:33;95058.16;;;18.46;56.18
79686;BME280;69153;47.918;11.428;2023-09-19T05:09:59;95067.03;;;18.32;56.80
79686;BME280;69153;47.918;11.428;2023-09-19T05:12:26;95063.56;;;18.26;56.78
79686;BME280;69153;47.918;11.428;2023-09-19T05:14:51;95079.56;;;18.20;56.95
79686;BME280;69153;47.918;11.428;2023-09-19T05:17:16;95079.97;;;18.34;56.93
79686;BME280;69153;47.918;11.428;2023-09-19T05:19:42;95074.69;;;18.60;56.08
79686;BME280;69153;47.918;11.428;2023-09-19T05:22:08;95074.34;;;18.52;55.99
79686;BME280;69153;47.918;11.428;2023-09-19T05:24:33;95076.84;;;18.55;56.02
79686;BME280;69153;47.918;11.428;2023-09-19T05:26:59;95087.63;;;18.41;56.71
79686;BME280;69153;47.918;11.428;2023-09-19T05:29:24;95080.84;;;18.25;56.93
79686;BME280;69153;47.918;11.428;2023-09-19T05:31:50;95082.41;;;18.52;56.59
79686;BME280;69153;47.918;11.428;2023-09-19T05:34:16;95093.81;;;18.67;56.42
79686;BME280;69153;47.918;11.428;2023-09-19T05:36:42;95086.47;;;18.88;55.53
79686;BME280;69153;47.918;11.428;2023-09-19T05:39:08;95090.84;;;18.85;55.69
79686;BME280;69153;47.918;11.428;2023-09-19T05:41:35;95095.16;;;18.77;56.27
79686;BME280;69153;47.918;11.428;2023-09-19T05:44:02;95096.81;;;18.75;55.96
79686;BME280;69153;47.918;11.428;2023-09-19T05:46:28;95104.31;;;18.91;55.66
79686;BME280;69153;47.918;11.428;2023-09-19T05:48:55;95100.69;;;18.94;55.39
79686;BME280;69153;47.918;11.428;2023-09-19T05:51:23;95100.16;;;18.90;55.33
79686;BME280;69153;47.918;11.428;2023-09-19T05:53:50;95095.09;;;18.98;55.11
79686;BME280;69153;47.918;11.428;2023-09-19T05:56:16;95097.88;;;18.83;55.68
79686;BME280;69153;47.918;11.428;2023-09-19T05:58:42;95103.00;;;18.81;55.81
79686;BME280;69153;47.918;11.428;2023-09-19T06:01:10;95101.22;;;18.98;55.72
79686;BME280;69153;47.918;11.428;2023-09-19T06:03:36;95102.03;;;19.04;55.59
79686;BME280;69153;47.918;11.428;2023-09-19T06:06:04;95109.06;;;19.02;55.83
79686;BME280;69153;47.918;11.428;2023-09-19T06:08:32;95110.22;;;18.95;55.55
79686;BME280;69153;47.918;11.428;2023-09-19T06:10:59;95114.28;;;19.11;55.09
79686;BME280;69153;47.918;11.428;2023-09-19T06:13:25;95109.25;;;19.18;54.95
79686;BME280;69153;47.918;11.428;2023-09-19T06:15:52;95111.81;;;19.07;55.17
79686;BME280;69153;47.918;11.428;2023-09-19T06:18:17;95103.88;;;19.18;54.83
79686;BME280;69153;47.918;11.428;2023-09-19T06:20:48;95112.66;;;19.19;54.47
79686;BME280;69153;47.918;11.428;2023-09-19T06:23:16;95114.06;;;19.14;54.47
79686;BME280;69153;47.918;11.428;2023-09-19T06:25:42;95116.09;;;19.19;54.57
79686;BME280;69153;47.918;11.428;2023-09-19T06:28:11;95118.34;;;19.26;54.87
79686;BME280;69153;47.918;11.428;2023-09-19T06:30:40;95116.09;;;19.19;54.99
79686;BME280;69153;47.918;11.428;2023-09-19T06:33:06;95117.97;;;19.39;54.62
79686;BME280;69153;47.918;11.428;2023-09-19T06:35:34;95117.78;;;19.48;54.03
79686;BME280;69153;47.918;11.428;2023-09-19T06:38:04;95121.31;;;19.54;53.64
79686;BME280;69153;47.918;11.428;2023-09-19T06:40:30;95128.03;;;19.70;53.77
79686;BME280;69153;47.918;11.428;2023-09-19T06:42:56;95139.34;;;19.80;53.72
79686;BME280;69153;47.918;11.428;2023-09-19T06:45:23;95134.41;;;19.73;52.72
79686;BME280;69153;47.918;11.428;2023-09-19T06:47:52;95135.16;;;19.73;53.18
79686;BME280;69153;47.918;11.428;2023-09-19T06:50:23;95130.59;;;19.85;53.92
79686;BME280;69153;47.918;11.428;2023-09-19T06:52:53;95138.50;;;19.99;53.45
79686;BME280;69153;47.918;11.428;2023-09-19T06:55:21;95139.41;;;19.91;53.57
79686;BME280;69153;47.918;11.428;2023-09-19T06:57:50;95137.13;;;19.78;53.95
79686;BME280;69153;47.918;11.428;2023-09-19T07:00:16;95145.25;;;19.84;53.86
79686;BME280;69153;47.918;11.428;2023-09-19T07:03:07;95153.25;;;19.78;54.30
79686;BME280;69153;47.918;11.428;2023-09-19T07:05:40;95150.88;;;19.86;54.10
79686;BME280;69153;47.918;11.428;2023-09-19T07:08:07;95145.53;;;19.91;54.56
79686;BME280;69153;47.918;11.428;2023-09-19T07:10:33;95143.88;;;19.99;53.56
79686;BME280;69153;47.918;11.428;2023-09-19T07:13:00;95150.50;;;20.04;53.06
79686;BME280;69153;47.918;11.428;2023-09-19T07:15:26;95153.19;;;19.98;53.57
79686;BME280;69153;47.918;11.428;2023-09-19T07:17:53;95154.59;;;19.94;53.58
79686;BME280;69153;47.918;11.428;2023-09-19T07:20:20;95155.88;;;19.98;53.52
79686;BME280;69153;47.918;11.428;2023-09-19T07:22:45;95158.19;;;20.17;52.78
79686;BME280;69153;47.918;11.428;2023-09-19T07:25:11;95163.25;;;20.41;52.41
79686;BME280;69153;47.918;11.428;2023-09-19T07:27:40;95160.69;;;20.68;51.59
79686;BME280;69153;47.918;11.428;2023-09-19T07:30:05;95176.25;;;21.01;50.87
79686;BME280;69153;47.918;11.428;2023-09-19T07:32:31;95175.22;;;20.88;51.18
79686;BME280;69153;47.918;11.428;2023-09-19T07:34:56;95170.53;;;20.77;50.93
79686;BME280;69153;47.918;11.428;2023-09-19T07:37:22;95171.50;;;20.74;51.32
79686;BME280;69153;47.918;11.428;2023-09-19T07:39:50;95173.44;;;20.74;51.67
79686;BME280;69153;47.918;11.428;2023-09-19T07:42:16;95169.75;;;20.71;51.26
79686;BME280;69153;47.918;11.428;2023-09-19T07:44:43;95170.75;;;19.94;53.38
79686;BME280;69153;47.918;11.428;2023-09-19T07:47:14;95172.09;;;20.15;53.22
79686;BME280;69153;47.918;11.428;2023-09-19T07:49:39;95178.78;;;20.25;52.59
79686;BME280;69153;47.918;11.428;2023-09-19T07:52:06;95188.03;;;20.19;52.58
79686;BME280;69153;47.918;11.428;2023-09-19T07:54:32;95185.19;;;20.71;50.86
79686;BME280;69153;47.918;11.428;2023-09-19T07:57:04;95175.69;;;21.68;48.73
79686;BME280;69153;47.918;11.428;2023-09-19T07:59:29;95175.84;;;23.28;45.45
79686;BME280;69153;47.918;11.428;2023-09-19T08:01:55;95176.81;;;22.78;45.90
79686;BME280;69153;47.918;11.428;2023-09-19T08:04:20;95177.56;;;22.79;46.23
79686;BME280;69153;47.918;11.428;2023-09-19T08:06:46;95189.47;;;22.03;47.66
79686;BME280;69153;47.918;11.428;2023-09-19T08:09:11;95188.44;;;21.79;48.62
79686;BME280;69153;47.918;11.428;2023-09-19T08:11:39;95177.44;;;22.16;47.87
79686;BME280;69153;47.918;11.428;2023-09-19T08:14:04;95179.84;;;23.98;42.76
79686;BME280;69153;47.918;11.428;2023-09-19T08:16:31;95177.50;;;23.83;42.86
79686;BME280;69153;47.918;11.428;2023-09-19T08:18:56;95180.31;;;23.67;43.60
79686;BME280;69153;47.918;11.428;2023-09-19T08:21:22;95172.72;;;23.95;43.07
79686;BME280;69153;47.918;11.428;2023-09-19T08:23:49;95182.69;;;23.76;43.28
79686;BME280;69153;47.918;11.428;2023-09-19T08:26:15;95181.38;;;23.52;43.24
79686;BME280;69153;47.918;11.428;2023-09-19T08:28:40;95175.38;;;23.71;42.95
79686;BME280;69153;47.918;11.428;2023-09-19T08:31:07;95185.13;;;23.85;42.81
79686;BME280;69153;47.918;11.428;2023-09-19T08:33:35;95170.84;;;23.84;42.73
79686;BME280;69153;47.918;11.428;2023-09-19T08:36:02;95183.28;;;26.09;37.96
79686;BME280;69153;47.918;11.428;2023-09-19T08:38:31;95182.69;;;27.21;35.78
79686;BME280;69153;47.918;11.428;2023-09-19T08:40:59;95184.09;;;26.04;37.39
79686;BME280;69153;47.918;11.428;2023-09-19T08:43:25;95188.63;;;25.63;38.60
79686;BME280;69153;47.918;11.428;2023-09-19T08:46:02;95174.31;;;24.64;39.98
79686;BME280;69153;47.918;11.428;2023-09-19T08:48:29;95193.59;;;27.89;34.63
79686;BME280;69153;47.918;11.428;2023-09-19T08:51:02;95192.59;;;30.62;30.61
79686;BME280;69153;47.918;11.428;2023-09-19T08:53:43;95178.94;;;31.65;28.18
79686;BME280;69153;47.918;11.428;2023-09-19T08:56:17;95190.00;;;32.07;27.50
79686;BME280;69153;47.918;11.428;2023-09-19T08:58:50;95196.34;;;31.52;27.32
79686;BME280;69153;47.918;11.428;2023-09-19T09:01:18;95196.59;;;30.45;28.92
79686;BME280;69153;47.918;11.428;2023-09-19T09:03:51;95188.66;;;32.15;26.99
79686;BME280;69153;47.918;11.428;2023-09-19T09:06:17;95182.94;;;32.21;26.56
79686;BME280;69153;47.918;11.428;2023-09-19T09:08:46;95187.56;;;32.18;26.34
79686;BME280;69153;47.918;11.428;2023-09-19T09:11:12;95186.81;;;32.43;26.55
79686;BME280;69153;47.918;11.428;2023-09-19T09:13:39;95193.78;;;33.13;25.20
79686;BME280;69153;47.918;11.428;2023-09-19T09:16:07;95186.63;;;32.41;26.56
79686;BME280;69153;47.918;11.428;2023-09-19T09:18:33;95182.16;;;31.78;27.31
79686;BME280;69153;47.918;11.428;2023-09-19T09:20:58;95195.25;;;30.92;27.15
79686;BME280;69153;47.918;11.428;2023-09-19T09:23:24;95186.19;;;31.30;26.88
79686;BME280;69153;47.918;11.428;2023-09-19T09:25:55;95205.88;;;30.73;28.27
79686;BME280;69153;47.918;11.428;2023-09-19T09:28:26;95198.94;;;28.65;30.95
79686;BME280;69153;47.918;11.428;2023-09-19T09:30:53;95186.88;;;28.81;30.61
79686;BME280;69153;47.918;11.428;2023-09-19T09:33:19;95192.00;;;27.73;32.13
79686;BME280;69153;47.918;11.428;2023-09-19T09:35:57;95192.72;;;27.73;33.07
79686;BME280;69153;47.918;11.428;2023-09-19T09:38:27;95197.19;;;28.05;33.11
79686;BME280;69153;47.918;11.428;2023-09-19T09:40:54;95200.19;;;27.13;33.97
79686;BME280;69153;47.918;11.428;2023-09-19T09:43:37;95189.66;;;28.96;31.00
79686;BME280;69153;47.918;11.428;2023-09-19T09:51:44;95194.44;;;31.94;26.15
79686;BME280;69153;47.918;11.428;2023-09-19T09:54:24;95178.06;;;32.19;26.55
79686;BME280;69153;47.918;11.428;2023-09-19T09:57:00;95190.63;;;31.65;26.69
79686;BME280;69153;47.918;11.428;2023-09-19T09:59:48;95190.19;;;31.76;27.10
79686;BME280;69153;47.918;11.428;2023-09-19T10:02:37;95201.81;;;32.17;26.43
79686;BME280;69153;47.918;11.428;2023-09-19T10:05:19;95210.06;;;30.81;28.52
79686;BME280;69153;47.918;11.428;2023-09-19T10:07:49;95190.84;;;31.04;27.66
79686;BME280;69153;47.918;11.428;2023-09-19T10:10:33;95196.97;;;30.27;28.48
79686;BME280;69153;47.918;11.428;2023-09-19T10:13:10;95192.56;;;30.39;29.62
79686;BME280;69153;47.918;11.428;2023-09-19T10:15:51;95193.25;;;31.48;26.92
79686;BME280;69153;47.918;11.428;2023-09-19T10:18:26;95184.84;;;32.78;25.73
79686;BME280;69153;47.918;11.428;2023-09-19T10:20:53;95184.75;;;33.20;25.81
79686;BME280;69153;47.918;11.428;2023-09-19T10:23:21;95213.22;;;31.73;26.54
79686;BME280;69153;47.918;11.428;2023-09-19T10:25:50;95200.28;;;29.43;29.83
79686;BME280;69153;47.918;11.428;2023-09-19T10:28:17;95193.00;;;28.04;32.94
79686;BME280;69153;47.918;11.428;2023-09-19T10:30:51;95198.53;;;27.10;34.02
79686;BME280;69153;47.918;11.428;2023-09-19T10:33:18;95197.75;;;26.30;36.40
79686;BME280;69153;47.918;11.428;2023-09-19T10:35:48;95204.97;;;25.77;36.12
79686;BME280;69153;47.918;11.428;2023-09-19T10:38:17;95211.59;;;25.25;37.27
79686;BME280;69153;47.918;11.428;2023-09-19T10:40:52;95200.91;;;24.65;38.03
79686;BME280;69153;47.918;11.428;2023-09-19T10:43:21;95207.22;;;24.49;38.71
79686;BME280;69153;47.918;11.428;2023-09-19T10:45:50;95209.94;;;24.49;38.14
79686;BME280;69153;47.918;11.428;2023-09-19T10:48:18;95205.81;;;24.91;37.91
79686;BME280;69153;47.918;11.428;2023-09-19T10:51:12;95202.38;;;24.90;36.96
79686;BME280;69153;47.918;11.428;2023-09-19T10:53:54;95209.81;;;25.09;36.57
79686;BME280;69153;47.918;11.428;2023-09-19T10:56:36;95208.63;;;24.80;37.64
79686;BME280;69153;47.918;11.428;2023-09-19T10:59:09;95215.81;;;24.53;38.24
79686;BME280;69153;47.918;11.428;2023-09-19T11:04:24;95212.56;;;24.00;38.84
79686;BME280;69153;47.918;11.428;2023-09-19T11:07:01;95208.41;;;23.58;39.71
79686;BME280;69153;47.918;11.428;2023-09-19T11:15:07;95216.09;;;24.74;36.58
79686;BME280;69153;47.918;11.428;2023-09-19T11:17:41;95209.09;;;25.27;36.55
79686;BME280;69153;47.918;11.428;2023-09-19T11:30:38;95203.81;;;24.43;36.65
79686;BME280;69153;47.918;11.428;2023-09-19T11:36:10;95196.19;;;25.52;35.27
79686;BME280;69153;47.918;11.428;2023-09-19T11:49:29;95198.22;;;25.08;35.76
79686;BME280;69153;47.918;11.428;2023-09-19T11:51:57;95207.34;;;24.86;35.68
79686;BME280;69153;47.918;11.428;2023-09-19T11:54:27;95200.06;;;25.38;36.02
79686;BME280;69153;47.918;11.428;2023-09-19T11:56:58;95189.50;;;25.72;35.29
79686;BME280;69153;47.918;11.428;2023-09-19T11:59:29;95193.16;;;25.93;34.71
79686;BME280;69153;47.918;11.428;2023-09-19T12:04:36;95184.38;;;25.68;34.89
79686;BME280;69153;47.918;11.428;2023-09-19T12:07:07;95186.50;;;25.75;35.47
79686;BME280;69153;47.918;11.428;2023-09-19T12:09:39;95178.38;;;25.19;35.98
79686;BME280;69153;47.918;11.428;2023-09-19T12:12:25;95181.25;;;25.26;37.17
79686;BME280;69153;47.918;11.428;2023-09-19T12:14:56;95190.25;;;25.35;36.52
79686;BME280;69153;47.918;11.428;2023-09-19T12:17:41;95172.75;;;25.17;36.00
79686;BME280;69153;47.918;11.428;2023-09-19T12:20:10;95172.00;;;25.16;35.82
79686;BME280;69153;47.918;11.428;2023-09-19T12:22:46;95183.06;;;25.37;35.86
79686;BME280;69153;47.918;11.428;2023-09-19T12:25:16;95179.47;;;25.67;36.22
79686;BME280;69153;47.918;11.428;2023-09-19T12:27:49;95181.78;;;25.76;34.70
79686;BME280;69153;47.918;11.428;2023-09-19T12:30:19;95183.38;;;25.15;36.07
79686;BME280;69153;47.918;11.428;2023-09-19T12:32:47;95178.41;;;24.95;37.01
79686;BME280;69153;47.918;11.428;2023-09-19T12:35:27;95175.03;;;24.88;37.12
79686;BME280;69153;47.918;11.428;2023-09-19T12:37:53;95176.00;;;24.91;36.71
79686;BME280;69153;47.918;11.428;2023-09-19T12:40:21;95182.19;;;25.10;36.12
79686;BME280;69153;47.918;11.428;2023-09-19T12:42:54;95167.97;;;25.23;35.80
79686;BME280;69153;47.918;11.428;2023-09-19T12:45:31;95168.84;;;25.31;36.19
79686;BME280;69153;47.918;11.428;2023-09-19T12:48:22;95168.81;;;25.50;35.95
79686;BME280;69153;47.918;11.428;2023-09-19T12:51:09;95160.63;;;25.37;36.33
79686;BME280;69153;47.918;11.428;2023-09-19T12:53:39;95157.03;;;25.47;35.74
79686;BME280;69153;47.918;11.428;2023-09-19T12:56:10;95155.13;;;25.61;36.39
79686;BME280;69153;47.918;11.428;2023-09-19T12:58:52;95169.91;;;25.60;36.45
79686;BME280;69153;47.918;11.428;2023-09-19T13:01:22;95167.28;;;25.73;36.86
79686;BME280;69153;47.918;11.428;2023-09-19T13:06:44;95173.00;;;26.02;34.57
79686;BME280;69153;47.918;11.428;2023-09-19T13:09:11;95166.31;;;25.71;34.68
79686;BME280;69153;47.918;11.428;2023-09-19T13:11:38;95148.25;;;25.22;35.67
79686;BME280;69153;47.918;11.428;2023-09-19T13:14:24;95148.34;;;25.17;36.39
79686;BME280;69153;47.918;11.428;2023-09-19T13:17:06;95147.72;;;25.43;35.69
79686;BME280;69153;47.918;11.428;2023-09-19T13:22:38;95142.66;;;25.34;36.15
79686;BME280;69153;47.918;11.428;2023-09-19T13:25:06;95142.75;;;25.28;35.34
79686;BME280;69153;47.918;11.428;2023-09-19T13:27:32;95143.56;;;25.04;36.01
79686;BME280;69153;47.918;11.428;2023-09-19T13:29:58;95143.72;;;25.31;35.16
79686;BME280;69153;47.918;11.428;2023-09-19T13:32:24;95141.63;;;25.37;36.04
79686;BME280;69153;47.918;11.428;2023-09-19T13:34:49;95147.34;;;25.33;36.42
79686;BME280;69153;47.918;11.428;2023-09-19T13:37:16;95137.91;;;25.40;36.22
79686;BME280;69153;47.918;11.428;2023-09-19T13:39:43;95144.19;;;25.48;36.49
79686;BME280;69153;47.918;11.428;2023-09-19T13:42:13;95148.88;;;25.47;35.90
79686;BME280;69153;47.918;11.428;2023-09-19T13:44:38;95137.97;;;25.34;36.08
79686;BME280;69153;47.918;11.428;2023-09-19T13:47:06;95129.47;;;25.24;36.22
79686;BME280;69153;47.918;11.428;2023-09-19T13:49:38;95136.81;;;25.11;36.43
79686;BME280;69153;47.918;11.428;2023-09-19T13:52:04;95140.97;;;24.50;37.51
79686;BME280;69153;47.918;11.428;2023-09-19T13:54:31;95127.53;;;24.14;38.44
79686;BME280;69153;47.918;11.428;2023-09-19T13:56:57;95131.66;;;23.91;38.75
79686;BME280;69153;47.918;11.428;2023-09-19T13:59:23;95125.63;;;24.04;38.68
79686;BME280;69153;47.918;11.428;2023-09-19T14:01:49;95135.03;;;23.73;39.17